createdAt,value
2023-04-11T00:00:17.910Z,15.85
2023-04-11T00:01:17.888Z,15.88
2023-04-11T00:02:17.921Z,15.88
2023-04-11T00:03:17.999Z,15.89
2023-04-11T00:04:18.007Z,15.88
2023-04-11T00:05:17.843Z,15.89
2023-04-11T00:06:17.832Z,15.88
2023-04-11T00:07:17.819Z,15.88
2023-04-11T00:08:17.804Z,15.89
2023-04-11T00:09:17.840Z,15.89
2023-04-11T00:10:17.783Z,15.89
2023-04-11T00:11:17.779Z,15.88
2023-04-11T00:12:17.757Z,15.88
2023-04-11T00:13:17.765Z,15.89
2023-04-11T00:14:17.763Z,15.86
2023-04-11T00:15:17.766Z,15.88
2023-04-11T00:16:17.823Z,15.88
2023-04-11T00:17:17.752Z,15.88
2023-04-11T00:18:17.699Z,15.86
2023-04-11T00:19:17.694Z,15.88
2023-04-11T00:20:17.684Z,15.86
2023-04-11T00:21:17.692Z,15.85
2023-04-11T00:22:17.659Z,15.85
2023-04-11T00:23:17.652Z,15.85
2023-04-11T00:24:17.633Z,15.85
2023-04-11T00:25:17.632Z,15.85
2023-04-11T00:26:17.635Z,15.84
2023-04-11T00:27:18.244Z,15.84
2023-04-11T00:28:17.596Z,15.81
2023-04-11T00:29:17.582Z,15.81
2023-04-11T00:30:17.596Z,15.81
2023-04-11T00:31:17.636Z,15.81
2023-04-11T00:32:17.568Z,15.84
2023-04-11T00:33:17.543Z,15.84
2023-04-11T00:34:17.529Z,15.81
2023-04-11T00:35:17.537Z,15.85
2023-04-11T00:36:17.626Z,15.85
2023-04-11T00:37:17.499Z,15.85
2023-04-11T00:38:17.607Z,15.88
2023-04-11T00:39:17.474Z,15.89
2023-04-11T00:40:17.496Z,15.91
2023-04-11T00:41:17.457Z,15.89
2023-04-11T00:42:17.442Z,15.89
2023-04-11T00:43:17.450Z,15.91
2023-04-11T00:44:17.433Z,15.91
2023-04-11T00:45:17.413Z,15.92
2023-04-11T00:46:17.488Z,15.91
2023-04-11T00:47:17.412Z,15.92
2023-04-11T00:48:17.389Z,15.92
2023-04-11T00:49:17.366Z,15.92
2023-04-11T00:50:17.382Z,15.92
2023-04-11T00:51:17.353Z,15.91
2023-04-11T00:52:17.342Z,15.91
2023-04-11T00:53:17.322Z,15.91
2023-04-11T00:54:17.323Z,15.88
2023-04-11T00:55:17.341Z,15.89
2023-04-11T00:56:17.298Z,15.88
2023-04-11T00:57:17.290Z,15.88
2023-04-11T00:58:17.289Z,15.88
2023-04-11T00:59:17.264Z,15.86
2023-04-11T01:00:17.273Z,15.85
2023-04-11T01:01:17.371Z,15.86
2023-04-11T01:02:17.275Z,15.86
2023-04-11T01:03:17.321Z,15.85
2023-04-11T01:04:17.240Z,15.85
2023-04-11T01:05:17.200Z,15.85
2023-04-11T01:06:17.192Z,15.85
2023-04-11T01:07:17.177Z,15.85
2023-04-11T01:08:17.163Z,15.84
2023-04-11T01:09:17.166Z,15.84
2023-04-11T01:10:17.145Z,15.84
2023-04-11T01:11:17.133Z,15.85
2023-04-11T01:12:17.148Z,15.84
2023-04-11T01:13:17.112Z,15.84
2023-04-11T01:14:17.107Z,15.81
2023-04-11T01:15:17.096Z,15.81
2023-04-11T01:16:17.117Z,15.80
2023-04-11T01:17:17.085Z,15.80
2023-04-11T01:18:17.071Z,15.77
2023-04-11T01:19:17.160Z,15.78
2023-04-11T01:20:17.048Z,15.77
2023-04-11T01:21:17.029Z,15.77
2023-04-11T01:22:17.018Z,15.74
2023-04-11T01:23:17.011Z,15.76
2023-04-11T01:24:17.006Z,15.74
2023-04-11T01:25:17.002Z,15.73
2023-04-11T01:26:16.978Z,15.73
2023-04-11T01:27:16.965Z,15.71
2023-04-11T01:28:16.961Z,15.71
2023-04-11T01:29:16.950Z,15.70
2023-04-11T01:30:16.970Z,15.67
2023-04-11T01:31:16.962Z,15.67
2023-04-11T01:32:16.934Z,15.66
2023-04-11T01:33:16.909Z,15.66
2023-04-11T01:34:16.909Z,15.66
2023-04-11T01:35:16.901Z,15.56
2023-04-11T01:36:16.881Z,15.51
2023-04-11T01:37:16.860Z,15.41
2023-04-11T01:38:16.863Z,15.34
2023-04-11T01:39:16.858Z,15.27
2023-04-11T01:40:16.838Z,15.16
2023-04-11T01:41:16.860Z,15.11
2023-04-11T01:42:16.815Z,15.05
2023-04-11T01:43:16.796Z,15.04
2023-04-11T01:44:16.827Z,14.95
2023-04-11T01:45:16.774Z,14.85
2023-04-11T01:46:16.773Z,14.74
2023-04-11T01:47:16.767Z,14.66
2023-04-11T01:48:16.845Z,14.60
2023-04-11T01:49:16.748Z,14.53
2023-04-11T01:50:16.729Z,14.46
2023-04-11T01:51:16.713Z,14.42
2023-04-11T01:52:16.724Z,14.36
2023-04-11T01:53:16.702Z,14.34
2023-04-11T01:54:16.682Z,14.30
2023-04-11T01:55:16.666Z,14.30
2023-04-11T01:56:16.672Z,14.29
2023-04-11T01:57:16.657Z,14.30
2023-04-11T01:58:16.670Z,14.31
2023-04-11T01:59:16.637Z,14.31
2023-04-11T02:00:16.622Z,14.31
2023-04-11T02:01:16.659Z,14.29
2023-04-11T02:02:16.989Z,14.30
2023-04-11T02:03:16.730Z,14.29
2023-04-11T02:04:16.649Z,14.30
2023-04-11T02:05:16.569Z,14.29
2023-04-11T02:06:16.554Z,14.26
2023-04-11T02:07:16.537Z,14.23
2023-04-11T02:08:16.537Z,14.21
2023-04-11T02:09:16.531Z,14.17
2023-04-11T02:10:16.512Z,14.06
2023-04-11T02:11:16.497Z,13.93
2023-04-11T02:12:16.494Z,13.75
2023-04-11T02:13:16.471Z,13.61
2023-04-11T02:14:16.470Z,13.47
2023-04-11T02:15:16.463Z,13.32
2023-04-11T02:16:16.508Z,13.25
2023-04-11T02:17:16.457Z,13.16
2023-04-11T02:18:16.425Z,13.10
2023-04-11T02:19:16.423Z,13.03
2023-04-11T02:20:16.423Z,12.96
2023-04-11T02:21:16.389Z,12.91
2023-04-11T02:22:16.385Z,12.88
2023-04-11T02:23:16.367Z,12.87
2023-04-11T02:24:16.399Z,12.85
2023-04-11T02:25:16.360Z,12.80
2023-04-11T02:26:16.366Z,12.74
2023-04-11T02:27:16.323Z,12.69
2023-04-11T02:28:16.322Z,12.63
2023-04-11T02:29:16.321Z,12.63
2023-04-11T02:30:16.305Z,12.66
2023-04-11T02:31:16.336Z,12.59
2023-04-11T02:32:16.533Z,12.52
2023-04-11T02:33:16.291Z,12.44
2023-04-11T02:34:16.257Z,12.41
2023-04-11T02:35:16.258Z,12.43
2023-04-11T02:36:16.300Z,12.41
2023-04-11T02:37:16.227Z,12.36
2023-04-11T02:38:16.222Z,12.29
2023-04-11T02:39:16.209Z,12.26
2023-04-11T02:40:16.205Z,12.25
2023-04-11T02:41:16.186Z,12.23
2023-04-11T02:42:16.186Z,12.21
2023-04-11T02:43:16.183Z,12.18
2023-04-11T02:44:16.156Z,12.15
2023-04-11T02:45:16.135Z,12.07
2023-04-11T02:46:16.147Z,12.00
2023-04-11T02:47:16.173Z,12.00
2023-04-11T02:48:16.117Z,11.98
2023-04-11T02:49:16.093Z,11.98
2023-04-11T02:50:16.088Z,11.97
2023-04-11T02:51:16.086Z,11.94
2023-04-11T02:52:16.070Z,11.94
2023-04-11T02:53:16.044Z,11.85
2023-04-11T02:54:16.056Z,11.85
2023-04-11T02:55:16.029Z,11.85
2023-04-11T02:56:16.038Z,11.84
2023-04-11T02:57:16.005Z,11.82
2023-04-11T02:58:16.014Z,11.82
2023-04-11T02:59:15.986Z,11.81
2023-04-11T03:00:15.976Z,11.82
2023-04-11T03:01:15.990Z,11.79
2023-04-11T03:02:16.038Z,11.79
2023-04-11T03:03:16.093Z,11.81
2023-04-11T03:04:15.981Z,11.82
2023-04-11T03:05:15.926Z,11.79
2023-04-11T03:06:15.911Z,11.82
2023-04-11T03:07:15.918Z,11.82
2023-04-11T03:08:16.852Z,11.79
2023-04-11T03:09:15.896Z,11.81
2023-04-11T03:10:15.879Z,11.81
2023-04-11T03:11:15.858Z,11.72
2023-04-11T03:12:15.868Z,11.70
2023-04-11T03:13:15.834Z,11.67
2023-04-11T03:14:15.828Z,11.64
2023-04-11T03:15:15.807Z,11.60
2023-04-11T03:16:15.907Z,11.59
2023-04-11T03:17:15.808Z,11.54
2023-04-11T03:18:15.790Z,11.51
2023-04-11T03:19:15.776Z,11.51
2023-04-11T03:20:15.783Z,11.51
2023-04-11T03:21:15.766Z,11.48
2023-04-11T03:22:15.743Z,11.48
2023-04-11T03:23:15.736Z,11.42
2023-04-11T03:24:15.744Z,11.41
2023-04-11T03:25:15.714Z,11.39
2023-04-11T03:26:15.711Z,11.38
2023-04-11T03:27:15.703Z,11.39
2023-04-11T03:28:15.687Z,11.38
2023-04-11T03:29:15.669Z,11.28
2023-04-11T03:30:15.664Z,11.27
2023-04-11T03:31:15.702Z,11.27
2023-04-11T03:32:15.639Z,11.24
2023-04-11T03:33:15.643Z,11.21
2023-04-11T03:34:15.621Z,11.20
2023-04-11T03:35:15.627Z,11.17
2023-04-11T03:36:15.614Z,11.09
2023-04-11T03:37:15.582Z,11.06
2023-04-11T03:38:15.596Z,11.06
2023-04-11T03:39:15.558Z,11.06
2023-04-11T03:40:15.564Z,11.02
2023-04-11T03:41:15.537Z,11.01
2023-04-11T03:42:15.548Z,11.02
2023-04-11T03:43:15.532Z,10.95
2023-04-11T03:44:15.625Z,10.99
2023-04-11T03:45:15.527Z,10.94
2023-04-11T03:46:15.549Z,10.91
2023-04-11T03:47:15.474Z,10.91
2023-04-11T03:48:15.481Z,10.90
2023-04-11T03:49:15.466Z,10.91
2023-04-11T03:50:15.456Z,10.93
2023-04-11T03:51:15.443Z,10.90
2023-04-11T03:52:15.425Z,10.88
2023-04-11T03:53:15.422Z,10.87
2023-04-11T03:54:15.404Z,10.86
2023-04-11T03:55:15.390Z,10.84
2023-04-11T03:56:15.381Z,10.84
2023-04-11T03:57:15.364Z,10.84
2023-04-11T03:58:15.376Z,10.80
2023-04-11T03:59:15.345Z,10.81
2023-04-11T04:00:15.340Z,10.78
2023-04-11T04:01:15.334Z,10.76
2023-04-11T04:02:15.391Z,10.78
2023-04-11T04:03:15.489Z,10.80
2023-04-11T04:04:15.410Z,10.75
2023-04-11T04:05:15.278Z,10.75
2023-04-11T04:06:15.287Z,10.76
2023-04-11T04:07:15.271Z,10.73
2023-04-11T04:08:15.249Z,10.73
2023-04-11T04:09:15.233Z,10.76
2023-04-11T04:10:15.229Z,10.75
2023-04-11T04:11:15.224Z,10.73
2023-04-11T04:12:15.221Z,10.73
2023-04-11T04:13:15.200Z,10.72
2023-04-11T04:14:15.186Z,10.72
2023-04-11T04:15:15.188Z,10.72
2023-04-11T04:16:15.182Z,10.72
2023-04-11T04:17:15.149Z,10.72
2023-04-11T04:18:15.139Z,10.75
2023-04-11T04:19:15.453Z,10.75
2023-04-11T04:20:15.356Z,10.75
2023-04-11T04:21:15.339Z,10.73
2023-04-11T04:22:15.113Z,10.69
2023-04-11T04:23:15.090Z,10.69
2023-04-11T04:24:15.092Z,10.68
2023-04-11T04:25:15.073Z,10.63
2023-04-11T04:26:15.077Z,10.60
2023-04-11T04:27:15.174Z,10.60
2023-04-11T04:28:15.036Z,10.62
2023-04-11T04:29:15.038Z,10.60
2023-04-11T04:30:15.015Z,10.58
2023-04-11T04:31:15.050Z,10.58
2023-04-11T04:32:14.995Z,10.57
2023-04-11T04:33:14.976Z,10.55
2023-04-11T04:34:14.985Z,10.52
2023-04-11T04:35:14.958Z,10.55
2023-04-11T04:36:14.950Z,10.52
2023-04-11T04:37:14.950Z,10.55
2023-04-11T04:38:14.997Z,10.54
2023-04-11T04:39:14.912Z,10.52
2023-04-11T04:40:14.920Z,10.54
2023-04-11T04:41:15.107Z,10.52
2023-04-11T04:42:14.892Z,10.54
2023-04-11T04:43:14.871Z,10.55
2023-04-11T04:44:15.222Z,10.55
2023-04-11T04:45:14.878Z,10.54
2023-04-11T04:46:14.977Z,10.55
2023-04-11T04:47:14.858Z,10.54
2023-04-11T04:48:14.863Z,10.54
2023-04-11T04:49:14.808Z,10.57
2023-04-11T04:50:14.813Z,10.55
2023-04-11T04:51:14.789Z,10.54
2023-04-11T04:52:14.821Z,10.57
2023-04-11T04:53:14.933Z,10.58
2023-04-11T04:54:14.834Z,10.55
2023-04-11T04:55:15.469Z,10.55
2023-04-11T04:56:14.757Z,10.55
2023-04-11T04:57:14.721Z,10.57
2023-04-11T04:58:15.438Z,10.57
2023-04-11T04:59:14.724Z,10.55
2023-04-11T05:00:14.710Z,10.54
2023-04-11T05:01:14.690Z,10.51
2023-04-11T05:02:14.737Z,10.51
2023-04-11T05:03:14.811Z,10.49
2023-04-11T05:04:14.705Z,10.46
2023-04-11T05:05:14.659Z,10.44
2023-04-11T05:06:14.634Z,10.42
2023-04-11T05:07:14.630Z,10.38
2023-04-11T05:08:14.613Z,10.34
2023-04-11T05:09:14.644Z,10.34
2023-04-11T05:10:14.590Z,10.29
2023-04-11T05:11:14.593Z,10.28
2023-04-11T05:12:14.577Z,10.26
2023-04-11T05:13:14.555Z,10.25
2023-04-11T05:14:14.581Z,10.18
2023-04-11T05:15:14.539Z,10.13
2023-04-11T05:16:15.273Z,10.10
2023-04-11T05:17:15.397Z,10.06
2023-04-11T05:18:15.290Z,10.04
2023-04-11T05:19:14.558Z,9.99
2023-04-11T05:20:14.572Z,9.98
2023-04-11T05:21:14.515Z,9.95
2023-04-11T05:22:15.193Z,9.92
2023-04-11T05:23:14.529Z,9.88
2023-04-11T05:24:15.172Z,9.83
2023-04-11T05:25:14.458Z,9.81
2023-04-11T05:26:14.598Z,9.77
2023-04-11T05:27:14.427Z,9.78
2023-04-11T05:28:14.436Z,9.78
2023-04-11T05:29:14.409Z,9.75
2023-04-11T05:30:14.419Z,9.75
2023-04-11T05:31:14.419Z,9.73
2023-04-11T05:32:14.418Z,9.71
2023-04-11T05:33:14.346Z,9.71
2023-04-11T05:34:14.325Z,9.71
2023-04-11T05:35:14.324Z,9.68
2023-04-11T05:36:14.484Z,9.67
2023-04-11T05:37:14.320Z,9.68
2023-04-11T05:38:14.290Z,9.62
2023-04-11T05:39:14.297Z,9.63
2023-04-11T05:40:14.280Z,9.62
2023-04-11T05:41:14.268Z,9.62
2023-04-11T05:42:14.249Z,9.62
2023-04-11T05:43:14.263Z,9.63
2023-04-11T05:44:14.226Z,9.60
2023-04-11T05:45:14.234Z,9.59
2023-04-11T05:46:14.260Z,9.60
2023-04-11T05:47:14.202Z,9.60
2023-04-11T05:48:15.925Z,9.63
2023-04-11T05:49:14.181Z,9.63
2023-04-11T05:50:15.047Z,9.63
2023-04-11T05:51:14.205Z,9.63
2023-04-11T05:52:14.150Z,9.63
2023-04-11T05:53:14.139Z,9.63
2023-04-11T05:54:14.126Z,9.65
2023-04-11T05:55:15.163Z,9.65
2023-04-11T05:56:14.099Z,9.65
2023-04-11T05:57:15.085Z,9.65
2023-04-11T05:58:14.113Z,9.67
2023-04-11T05:59:15.075Z,9.65
2023-04-11T06:00:14.095Z,9.68
2023-04-11T06:01:15.167Z,9.70
2023-04-11T06:02:14.139Z,9.70
2023-04-11T06:03:14.295Z,9.71
2023-04-11T06:04:14.160Z,9.71
2023-04-11T06:05:15.043Z,9.73
2023-04-11T06:06:14.030Z,9.71
2023-04-11T06:07:15.022Z,9.74
2023-04-11T06:08:14.033Z,9.75
2023-04-11T06:09:14.364Z,9.75
2023-04-11T06:10:13.990Z,9.73
2023-04-11T06:11:14.306Z,9.77
2023-04-11T06:12:13.951Z,9.77
2023-04-11T06:13:13.969Z,9.78
2023-04-11T06:14:13.938Z,9.77
2023-04-11T06:15:14.045Z,9.77
2023-04-11T06:16:13.918Z,9.80
2023-04-11T06:17:14.510Z,9.78
2023-04-11T06:18:13.890Z,9.80
2023-04-11T06:19:14.556Z,9.80
2023-04-11T06:20:13.862Z,9.81
2023-04-11T06:21:13.913Z,9.83
2023-04-11T06:22:13.841Z,9.81
2023-04-11T06:23:13.865Z,9.83
2023-04-11T06:24:13.813Z,9.85
2023-04-11T06:25:13.853Z,9.86
2023-04-11T06:26:13.840Z,9.89
2023-04-11T06:27:13.806Z,9.92
2023-04-11T06:28:13.758Z,9.93
2023-04-11T06:29:14.446Z,9.95
2023-04-11T06:30:13.749Z,9.98
2023-04-11T06:31:13.817Z,10.01
2023-04-11T06:32:13.745Z,10.04
2023-04-11T06:33:14.446Z,10.06
2023-04-11T06:34:13.761Z,10.09
2023-04-11T06:35:13.745Z,10.10
2023-04-11T06:36:13.762Z,10.11
2023-04-11T06:37:13.732Z,10.13
2023-04-11T06:38:13.689Z,10.13
2023-04-11T06:39:13.692Z,10.13
2023-04-11T06:40:13.738Z,10.13
2023-04-11T06:41:15.109Z,10.13
2023-04-11T06:42:13.632Z,10.13
2023-04-11T06:43:14.329Z,10.16
2023-04-11T06:44:13.633Z,10.13
2023-04-11T06:45:13.704Z,10.16
2023-04-11T06:46:13.677Z,10.13
2023-04-11T06:47:13.723Z,10.14
2023-04-11T06:48:13.572Z,10.13
2023-04-11T06:49:14.269Z,10.16
2023-04-11T06:50:13.544Z,10.14
2023-04-11T06:51:13.555Z,10.16
2023-04-11T06:52:13.558Z,10.16
2023-04-11T06:53:14.225Z,10.16
2023-04-11T06:54:13.494Z,10.18
2023-04-11T06:55:13.503Z,10.14
2023-04-11T06:56:13.495Z,10.17
2023-04-11T06:57:13.464Z,10.18
2023-04-11T06:58:13.459Z,10.17
2023-04-11T06:59:13.440Z,10.16
2023-04-11T07:00:13.452Z,10.20
2023-04-11T07:01:13.419Z,10.20
2023-04-11T07:02:13.470Z,10.25
2023-04-11T07:03:13.513Z,10.28
2023-04-11T07:04:13.604Z,10.31
2023-04-11T07:05:13.653Z,10.34
2023-04-11T07:06:13.681Z,10.35
2023-04-11T07:07:13.353Z,10.35
2023-04-11T07:08:13.664Z,10.38
2023-04-11T07:09:13.486Z,10.42
2023-04-11T07:10:14.629Z,10.44
2023-04-11T07:11:13.688Z,10.44
2023-04-11T07:12:13.293Z,10.44
2023-04-11T07:13:13.692Z,10.46
2023-04-11T07:14:14.000Z,10.46
2023-04-11T07:15:13.338Z,10.43
2023-04-11T07:16:14.007Z,10.42
2023-04-11T07:17:13.381Z,10.42
2023-04-11T07:18:13.643Z,10.39
2023-04-11T07:19:13.950Z,10.39
2023-04-11T07:20:14.009Z,10.42
2023-04-11T07:21:13.573Z,10.44
2023-04-11T07:22:13.355Z,10.47
2023-04-11T07:23:13.195Z,10.52
2023-04-11T07:24:14.192Z,10.57
2023-04-11T07:25:13.503Z,10.60
2023-04-11T07:26:13.484Z,10.63
2023-04-11T07:27:13.605Z,10.69
2023-04-11T07:28:13.844Z,10.70
2023-04-11T07:29:14.956Z,10.72
2023-04-11T07:30:13.455Z,10.73
2023-04-11T07:31:13.121Z,10.75
2023-04-11T07:32:13.100Z,10.83
2023-04-11T07:33:13.071Z,10.86
2023-04-11T07:34:13.071Z,10.87
2023-04-11T07:35:13.095Z,10.90
2023-04-11T07:36:13.082Z,10.93
2023-04-11T07:37:13.115Z,10.95
2023-04-11T07:38:13.012Z,11.01
2023-04-11T07:39:13.021Z,11.01
2023-04-11T07:40:12.995Z,10.98
2023-04-11T07:41:13.004Z,10.95
2023-04-11T07:42:12.975Z,11.02
2023-04-11T07:43:12.976Z,11.01
2023-04-11T07:44:12.952Z,11.01
2023-04-11T07:45:13.472Z,11.03
2023-04-11T07:46:13.260Z,11.05
2023-04-11T07:47:12.985Z,11.06
2023-04-11T07:48:13.916Z,11.06
2023-04-11T07:49:12.944Z,11.09
2023-04-11T07:50:13.586Z,11.12
2023-04-11T07:51:12.885Z,11.13
2023-04-11T07:52:14.312Z,11.19
2023-04-11T07:53:12.867Z,11.24
2023-04-11T07:54:12.862Z,11.23
2023-04-11T07:55:12.839Z,11.20
2023-04-11T07:56:12.845Z,11.19
2023-04-11T07:57:12.812Z,11.16
2023-04-11T07:58:12.799Z,11.13
2023-04-11T07:59:12.794Z,11.12
2023-04-11T08:00:12.780Z,11.12
2023-04-11T08:01:12.773Z,11.17
2023-04-11T08:02:12.819Z,11.17
2023-04-11T08:03:12.992Z,11.23
2023-04-11T08:04:12.886Z,11.27
2023-04-11T08:05:12.805Z,11.31
2023-04-11T08:06:12.716Z,11.38
2023-04-11T08:07:12.844Z,11.38
2023-04-11T08:08:12.857Z,11.41
2023-04-11T08:09:12.692Z,11.38
2023-04-11T08:10:12.688Z,11.39
2023-04-11T08:11:12.679Z,11.35
2023-04-11T08:12:12.675Z,11.35
2023-04-11T08:13:12.659Z,11.38
2023-04-11T08:14:12.642Z,11.39
2023-04-11T08:15:12.636Z,11.45
2023-04-11T08:16:12.646Z,11.51
2023-04-11T08:17:25.114Z,11.57
2023-04-11T08:18:13.605Z,11.60
2023-04-11T08:19:12.620Z,11.63
2023-04-11T08:20:12.564Z,11.69
2023-04-11T08:21:12.585Z,11.66
2023-04-11T08:22:12.558Z,11.67
2023-04-11T08:23:12.541Z,11.69
2023-04-11T08:24:12.533Z,11.74
2023-04-11T08:25:12.518Z,11.79
2023-04-11T08:26:12.507Z,11.78
2023-04-11T08:27:12.723Z,11.77
2023-04-11T08:28:12.485Z,11.75
2023-04-11T08:29:13.213Z,11.77
2023-04-11T08:30:12.477Z,11.81
2023-04-11T08:31:13.776Z,11.85
2023-04-11T08:32:12.467Z,11.93
2023-04-11T08:33:13.164Z,11.90
2023-04-11T08:34:12.454Z,11.90
2023-04-11T08:35:13.145Z,11.96
2023-04-11T08:36:12.477Z,11.96
2023-04-11T08:37:13.530Z,11.98
2023-04-11T08:38:12.397Z,11.98
2023-04-11T08:39:13.157Z,12.00
2023-04-11T08:40:12.382Z,11.97
2023-04-11T08:41:12.427Z,11.98
2023-04-11T08:42:12.353Z,11.98
2023-04-11T08:43:13.041Z,11.97
2023-04-11T08:44:12.510Z,12.00
2023-04-11T08:45:12.383Z,11.94
2023-04-11T08:46:12.322Z,11.90
2023-04-11T08:47:12.295Z,11.93
2023-04-11T08:48:12.674Z,11.98
2023-04-11T08:49:12.265Z,12.03
2023-04-11T08:50:12.338Z,12.07
2023-04-11T08:51:12.245Z,12.08
2023-04-11T08:52:12.240Z,12.08
2023-04-11T08:53:12.402Z,12.11
2023-04-11T08:54:12.252Z,12.15
2023-04-11T08:55:12.277Z,12.15
2023-04-11T08:56:12.262Z,12.16
2023-04-11T08:57:12.173Z,12.11
2023-04-11T08:58:12.332Z,12.18
2023-04-11T08:59:12.155Z,12.23
2023-04-11T09:00:12.151Z,12.23
2023-04-11T09:01:12.144Z,12.23
2023-04-11T09:02:12.317Z,12.22
2023-04-11T09:03:12.305Z,12.18
2023-04-11T09:04:12.099Z,12.18
2023-04-11T09:05:12.402Z,12.19
2023-04-11T09:06:12.529Z,12.25
2023-04-11T09:07:12.370Z,12.33
2023-04-11T09:08:12.329Z,12.33
2023-04-11T09:09:12.074Z,12.34
2023-04-11T09:10:12.108Z,12.40
2023-04-11T09:11:12.034Z,12.43
2023-04-11T09:12:12.896Z,12.44
2023-04-11T09:13:12.005Z,12.43
2023-04-11T09:14:11.998Z,12.38
2023-04-11T09:15:11.978Z,12.37
2023-04-11T09:16:12.233Z,12.36
2023-04-11T09:17:11.957Z,12.37
2023-04-11T09:18:12.032Z,12.46
2023-04-11T09:19:11.939Z,12.48
2023-04-11T09:20:12.187Z,12.46
2023-04-11T09:21:11.910Z,12.52
2023-04-11T09:22:11.960Z,12.55
2023-04-11T09:23:11.920Z,12.58
2023-04-11T09:24:12.012Z,12.66
2023-04-11T09:25:11.872Z,12.73
2023-04-11T09:26:11.913Z,12.80
2023-04-11T09:27:11.889Z,12.85
2023-04-11T09:28:11.888Z,12.85
2023-04-11T09:29:11.842Z,12.91
2023-04-11T09:30:11.965Z,12.94
2023-04-11T09:31:11.850Z,12.99
2023-04-11T09:32:11.827Z,13.03
2023-04-11T09:33:11.784Z,13.01
2023-04-11T09:34:11.791Z,13.01
2023-04-11T09:35:11.768Z,12.91
2023-04-11T09:36:11.837Z,12.91
2023-04-11T09:37:11.739Z,12.94
2023-04-11T09:38:11.733Z,12.94
2023-04-11T09:39:11.737Z,12.92
2023-04-11T09:40:11.718Z,12.89
2023-04-11T09:41:11.706Z,12.87
2023-04-11T09:42:11.693Z,12.80
2023-04-11T09:43:11.711Z,12.79
2023-04-11T09:44:11.673Z,12.79
2023-04-11T09:45:11.669Z,12.84
2023-04-11T09:46:11.665Z,12.91
2023-04-11T09:47:11.648Z,12.98
2023-04-11T09:48:11.664Z,13.03
2023-04-11T09:49:12.105Z,13.09
2023-04-11T09:50:11.629Z,13.16
2023-04-11T09:51:15.835Z,13.19
2023-04-11T09:52:12.626Z,13.24
2023-04-11T09:53:11.572Z,13.29
2023-04-11T09:54:11.565Z,13.31
2023-04-11T09:55:11.548Z,13.29
2023-04-11T09:56:11.582Z,13.28
2023-04-11T09:57:11.527Z,13.31
2023-04-11T09:58:11.561Z,13.32
2023-04-11T09:59:11.520Z,13.32
2023-04-11T10:00:11.505Z,13.39
2023-04-11T10:01:11.489Z,13.46
2023-04-11T10:02:11.571Z,13.48
2023-04-11T10:03:11.583Z,13.50
2023-04-11T10:04:11.534Z,13.55
2023-04-11T10:05:11.441Z,13.65
2023-04-11T10:06:11.448Z,13.79
2023-04-11T10:07:11.419Z,13.81
2023-04-11T10:08:11.435Z,13.76
2023-04-11T10:09:11.642Z,13.72
2023-04-11T10:10:11.406Z,13.71
2023-04-11T10:11:11.386Z,13.76
2023-04-11T10:12:11.369Z,13.79
2023-04-11T10:13:11.353Z,13.75
2023-04-11T10:14:11.356Z,13.80
2023-04-11T10:15:11.366Z,13.73
2023-04-11T10:16:11.380Z,13.68
2023-04-11T10:17:11.316Z,13.57
2023-04-11T10:18:11.440Z,13.51
2023-04-11T10:19:11.303Z,13.46
2023-04-11T10:20:11.284Z,13.39
2023-04-11T10:21:11.286Z,13.36
2023-04-11T10:22:11.307Z,13.31
2023-04-11T10:23:11.254Z,13.27
2023-04-11T10:24:12.275Z,13.19
2023-04-11T10:25:11.245Z,13.17
2023-04-11T10:26:11.222Z,13.13
2023-04-11T10:27:11.205Z,13.07
2023-04-11T10:28:11.202Z,13.06
2023-04-11T10:29:11.184Z,13.06
2023-04-11T10:30:11.177Z,13.04
2023-04-11T10:31:11.198Z,13.03
2023-04-11T10:32:11.156Z,13.01
2023-04-11T10:33:11.171Z,13.07
2023-04-11T10:34:11.134Z,13.16
2023-04-11T10:35:11.122Z,13.28
2023-04-11T10:36:11.305Z,13.32
2023-04-11T10:37:11.106Z,13.43
2023-04-11T10:38:11.121Z,13.43
2023-04-11T10:39:11.077Z,13.27
2023-04-11T10:40:11.080Z,13.28
2023-04-11T10:41:11.055Z,13.28
2023-04-11T10:42:11.054Z,13.28
2023-04-11T10:43:11.050Z,13.29
2023-04-11T10:44:11.029Z,13.39
2023-04-11T10:45:11.017Z,13.47
2023-04-11T10:46:11.011Z,13.43
2023-04-11T10:47:11.104Z,13.44
2023-04-11T10:48:10.989Z,13.48
2023-04-11T10:49:10.972Z,13.50
2023-04-11T10:50:10.970Z,13.51
2023-04-11T10:51:10.953Z,13.55
2023-04-11T10:52:10.950Z,13.61
2023-04-11T10:53:10.931Z,13.54
2023-04-11T10:54:10.939Z,13.51
2023-04-11T10:55:10.908Z,13.53
2023-04-11T10:56:10.904Z,13.63
2023-04-11T10:57:10.888Z,13.81
2023-04-11T10:58:10.887Z,13.98
2023-04-11T10:59:10.878Z,13.98
2023-04-11T11:00:10.884Z,13.88
2023-04-11T11:01:21.102Z,13.86
2023-04-11T11:02:11.891Z,13.81
2023-04-11T11:03:10.948Z,13.83
2023-04-11T11:04:11.174Z,13.84
2023-04-11T11:05:10.838Z,13.93
2023-04-11T11:06:10.790Z,13.99
2023-04-11T11:07:10.785Z,14.01
2023-04-11T11:08:10.772Z,14.08
2023-04-11T11:09:10.770Z,14.12
2023-04-11T11:10:10.749Z,14.19
2023-04-11T11:11:10.751Z,14.13
2023-04-11T11:12:10.723Z,14.06
2023-04-11T11:13:10.716Z,13.99
2023-04-11T11:14:10.721Z,13.94
2023-04-11T11:15:10.697Z,13.91
2023-04-11T11:16:10.712Z,13.96
2023-04-11T11:17:10.666Z,13.98
2023-04-11T11:18:10.678Z,14.01
2023-04-11T11:19:10.672Z,14.02
2023-04-11T11:20:10.649Z,14.09
2023-04-11T11:21:14.047Z,14.13
2023-04-11T11:22:11.633Z,14.20
2023-04-11T11:23:10.603Z,14.19
2023-04-11T11:24:10.598Z,14.11
2023-04-11T11:25:10.595Z,14.11
2023-04-11T11:26:10.579Z,14.11
2023-04-11T11:27:10.561Z,14.21
2023-04-11T11:28:10.559Z,14.35
2023-04-11T11:29:10.536Z,14.35
2023-04-11T11:30:10.536Z,14.36
2023-04-11T11:31:10.514Z,14.45
2023-04-11T11:32:10.578Z,14.49
2023-04-11T11:33:10.511Z,14.61
2023-04-11T11:35:10.480Z,14.82
2023-04-11T11:36:10.470Z,14.85
2023-04-11T11:37:10.458Z,14.90
2023-04-11T11:38:10.456Z,14.83
2023-04-11T11:39:10.435Z,14.79
2023-04-11T11:40:10.446Z,14.72
2023-04-11T11:41:10.407Z,14.75
2023-04-11T11:42:10.398Z,14.82
2023-04-11T11:43:10.383Z,14.83
2023-04-11T11:44:10.384Z,14.82
2023-04-11T11:45:10.402Z,14.91
2023-04-11T11:46:10.425Z,15.00
2023-04-11T11:47:10.373Z,15.09
2023-04-11T11:48:10.342Z,15.09
2023-04-11T11:49:10.340Z,15.18
2023-04-11T11:50:10.323Z,15.30
2023-04-11T11:51:10.308Z,15.28
2023-04-11T11:52:10.315Z,15.31
2023-04-11T11:53:10.335Z,15.37
2023-04-11T11:54:10.285Z,15.51
2023-04-11T11:55:11.429Z,15.55
2023-04-11T11:56:10.283Z,15.59
2023-04-11T11:57:10.297Z,15.67
2023-04-11T11:58:10.256Z,15.70
2023-04-11T11:59:10.255Z,15.68
2023-04-11T12:00:10.242Z,15.67
2023-04-11T12:01:10.205Z,15.67
2023-04-11T12:02:10.260Z,15.64
2023-04-11T12:03:10.392Z,15.70
2023-04-11T12:04:10.290Z,15.68
2023-04-11T12:05:10.237Z,15.59
2023-04-11T12:06:10.168Z,15.53
2023-04-11T12:07:10.143Z,15.44
2023-04-11T12:08:10.130Z,15.49
2023-04-11T12:09:10.111Z,15.66
2023-04-11T12:10:10.116Z,15.77
2023-04-11T12:11:10.109Z,15.62
2023-04-11T12:12:10.089Z,15.43
2023-04-11T12:13:10.078Z,15.31
2023-04-11T12:14:10.073Z,15.22
2023-04-11T12:15:10.063Z,15.31
2023-04-11T12:16:10.109Z,15.31
2023-04-11T12:17:10.060Z,15.23
2023-04-11T12:18:10.071Z,15.16
2023-04-11T12:19:10.017Z,15.22
2023-04-11T12:20:10.025Z,15.15
2023-04-11T12:21:09.993Z,15.22
2023-04-11T12:22:10.006Z,15.16
2023-04-11T12:23:09.960Z,15.16
2023-04-11T12:24:09.970Z,15.16
2023-04-11T12:25:09.957Z,15.23
2023-04-11T12:26:09.937Z,15.19
2023-04-11T12:27:10.770Z,15.33
2023-04-11T12:28:09.959Z,15.52
2023-04-11T12:29:09.902Z,15.81
2023-04-11T12:30:09.898Z,15.95
2023-04-11T12:31:09.924Z,16.06
2023-04-11T12:32:09.871Z,16.04
2023-04-11T12:33:09.867Z,15.91
2023-04-11T12:34:09.862Z,15.76
2023-04-11T12:35:09.885Z,15.66
2023-04-11T12:36:09.827Z,15.48
2023-04-11T12:37:09.812Z,15.25
2023-04-11T12:38:10.874Z,15.35
2023-04-11T12:39:09.804Z,15.44
2023-04-11T12:40:09.782Z,15.38
2023-04-11T12:42:10.643Z,15.37
2023-04-11T12:43:09.764Z,15.34
2023-04-11T12:44:09.740Z,15.35
2023-04-11T12:45:09.727Z,15.46
2023-04-11T12:46:09.759Z,15.44
2023-04-11T12:47:09.705Z,15.86
2023-04-11T12:48:09.740Z,16.37
2023-04-11T12:49:09.687Z,16.72
2023-04-11T12:50:09.682Z,16.70
2023-04-11T12:51:09.667Z,16.63
2023-04-11T12:52:09.660Z,16.55
2023-04-11T12:53:09.654Z,16.36
2023-04-11T12:54:09.631Z,16.33
2023-04-11T12:55:09.838Z,16.45
2023-04-11T12:56:09.616Z,16.32
2023-04-11T12:57:09.601Z,16.22